Private Wetterstation Wechselburg
Wetterdaten: Woche 06.04.15 - 12.04.15 (KW15)
Datum Zeit Temp. +2m Bodentemp. Temp.+5cm Temp. Wind Windchill X Diff Temp. Feuchte +2m Feuchte +5cm Sonnenschein Luftdruck Regen Wind Richtung Sonnenschein UV Taupunkt Windchill Windben
06.04.2015 00:00 -0,9 C 17,2 C -0,7 C -1,3 C -1,9 C 0,0 C 82 % 85 % 0 % 1025,0 hPa 0,0 l/m 0,0 km/h (0 Bft) N 0,00 h 0,2 UV-I -3,6 C -1,9 C 0,0 km/h (0 Bft)
06.04.2015 01:00 -1,3 C 17,0 C -0,4 C -1,4 C -1,6 C 0,0 C 83 % 86 % 0 % 1025,0 hPa 0,0 l/m 0,0 km/h (0 Bft) N 0,00 h 0,6 UV-I -3,9 C -1,6 C 0,2 km/h (0 Bft)
06.04.2015 02:00 -0,9 C 16,9 C 0,3 C -0,6 C -0,6 C 0,3 C 83 % 86 % 0 % 1024,7 hPa 0,0 l/m 0,3 km/h (0 Bft) W-NW 0,00 h 1,2 UV-I -3,4 C -0,6 C 1,4 km/h (1 Bft)
06.04.2015 03:00 -0,6 C 16,7 C 0,4 C -0,4 C -0,4 C 0,2 C 83 % 85 % 0 % 1024,3 hPa 0,0 l/m 0,9 km/h (0 Bft) S 0,00 h 1,2 UV-I -3,2 C -0,4 C 2,3 km/h (1 Bft)
06.04.2015 04:00 -0,6 C 16,7 C -0,0 C -0,7 C -1,0 C 0,0 C 82 % 86 % 0 % 1024,0 hPa 0,0 l/m 0,5 km/h (0 Bft) N 0,00 h 0,6 UV-I -3,3 C -1,0 C 0,6 km/h (0 Bft)
06.04.2015 05:00 -0,7 C 16,6 C 0,3 C -0,3 C -0,3 C 0,4 C 83 % 86 % 0 % 1024,2 hPa 0,0 l/m 0,2 km/h (0 Bft) N 0,00 h 1,5 UV-I -3,2 C -0,3 C 0,3 km/h (0 Bft)
06.04.2015 06:00 -0,8 C 16,5 C -0,2 C -0,9 C -1,1 C 0,0 C 82 % 86 % 0 % 1024,3 hPa 0,0 l/m 0,2 km/h (0 Bft) N 0,00 h 0,7 UV-I -3,4 C -1,1 C 0,0 km/h (0 Bft)
06.04.2015 07:00 -0,4 C 16,4 C 0,6 C 3,5 C 3,5 C 3,8 C 83 % 87 % 68 % 1024,8 hPa 0,0 l/m 0,2 km/h (0 Bft) N 0,83 h 1,1 UV-I -2,9 C 3,5 C 0,2 km/h (0 Bft)
06.04.2015 08:00 1,4 C 16,2 C 2,7 C 5,2 C 5,2 C 3,8 C 79 % 82 % 84 % 1025,4 hPa 0,0 l/m 2,3 km/h (1 Bft) W-SW 0,67 h 1,5 UV-I -1,9 C 5,2 C 3,3 km/h (1 Bft)
06.04.2015 09:00 2,3 C 16,1 C 3,4 C 4,5 C 4,5 C 2,3 C 77 % 79 % 59 % 1025,5 hPa 0,0 l/m 3,4 km/h (1 Bft) SW 0,00 h 0,0 UV-I -1,4 C 4,5 C 4,5 km/h (1 Bft)
06.04.2015 10:00 3,5 C 16,2 C 5,7 C 6,9 C 6,9 C 3,3 C 77 % 76 % 86 % 1025,8 hPa 0,0 l/m 3,4 km/h (1 Bft) W-SW 0,58 h 0,0 UV-I -0,2 C 6,9 C 4,5 km/h (1 Bft)
06.04.2015 11:00 4,5 C 16,3 C 6,5 C 6,7 C 6,6 C 2,2 C 76 % 73 % 53 % 1026,6 hPa 0,0 l/m 2,8 km/h (1 Bft) O-SO 0,42 h 0,0 UV-I 0,7 C 6,6 C 4,6 km/h (1 Bft)
06.04.2015 12:00 5,1 C 16,4 C 9,9 C 10,2 C 10,2 C 5,1 C 77 % 75 % 89 % 1026,9 hPa 0,0 l/m 3,5 km/h (1 Bft) O-NO 0,83 h 0,0 UV-I 1,5 C 10,2 C 4,6 km/h (1 Bft)
06.04.2015 13:00 6,8 C 16,5 C 10,0 C 10,7 C 10,7 C 3,9 C 64 % 66 % 84 % 1027,0 hPa 0,0 l/m 4,5 km/h (1 Bft) N-NO 0,58 h 0,0 UV-I 0,5 C 10,6 C 6,0 km/h (2 Bft)
06.04.2015 14:00 6,5 C 16,8 C 8,9 C 10,1 C 10,1 C 3,6 C 64 % 65 % 68 % 1027,6 hPa 0,0 l/m 4,5 km/h (1 Bft) NW 0,58 h 0,0 UV-I 0,2 C 9,8 C 6,6 km/h (2 Bft)
06.04.2015 15:00 7,5 C 17,0 C 8,5 C 10,7 C 10,7 C 3,3 C 59 % 59 % 77 % 1027,8 hPa 0,0 l/m 4,3 km/h (1 Bft) O-SO 0,50 h 0,0 UV-I -0,1 C 10,7 C 6,1 km/h (2 Bft)
06.04.2015 16:00 7,5 C 17,3 C 8,1 C 10,0 C 9,6 C 2,5 C 58 % 60 % 62 % 1028,4 hPa 0,0 l/m 6,8 km/h (2 Bft) O-SO 0,33 h 0,0 UV-I -0,2 C 8,9 C 10,0 km/h (2 Bft)
06.04.2015 17:00 7,6 C 17,4 C 9,2 C 11,2 C 11,2 C 3,6 C 57 % 58 % 86 % 1028,6 hPa 0,0 l/m 5,5 km/h (1 Bft) N-NW 0,83 h 0,0 UV-I -0,5 C 11,2 C 8,3 km/h (2 Bft)
06.04.2015 18:00 7,3 C 17,5 C 7,5 C 8,9 C 8,8 C 1,6 C 55 % 57 % 40 % 1029,5 hPa 0,0 l/m 2,9 km/h (1 Bft) O-NO 0,48 h 0,0 UV-I -1,1 C 8,8 C 3,8 km/h (1 Bft)
06.04.2015 19:00 6,5 C 17,6 C 5,9 C 6,7 C 6,3 C 0,3 C 57 % 61 % 8 % 1030,2 hPa 0,0 l/m 1,9 km/h (1 Bft) O-NO 0,08 h 0,0 UV-I -1,3 C 6,3 C 2,7 km/h (1 Bft)
06.04.2015 20:00 4,8 C 17,5 C 3,7 C 4,2 C 3,0 C 0,0 C 61 % 67 % 0 % 1031,2 hPa 0,0 l/m 0,4 km/h (0 Bft) N 0,00 h 0,0 UV-I -2,0 C 3,0 C 0,5 km/h (0 Bft)
06.04.2015 21:00 3,3 C 17,5 C 2,1 C 2,8 C 1,9 C 0,0 C 68 % 75 % 0 % 1031,8 hPa 0,0 l/m 0,3 km/h (0 Bft) O-NO 0,00 h 0,3 UV-I -2,0 C 1,9 C 0,2 km/h (0 Bft)
06.04.2015 22:00 2,5 C 17,4 C 1,6 C 2,0 C 0,8 C 0,0 C 72 % 78 % 0 % 1033,1 hPa 0,0 l/m 0,0 km/h (0 Bft) N 0,00 h 0,1 UV-I -2,1 C 0,8 C 0,0 km/h (0 Bft)
06.04.2015 23:00 1,1 C 17,4 C 0,4 C 0,3 C -1,3 C 0,0 C 76 % 81 % 0 % 1033,5 hPa 0,0 l/m 0,0 km/h (0 Bft) N 0,00 h 0,0 UV-I -2,6 C -1,3 C 0,0 km/h (0 Bft)
07.04.2015 00:00 -0,4 C 17,4 C -0,8 C -1,2 C -2,9 C 0,0 C 79 % 83 % 0 % 1034,2 hPa 0,0 l/m 0,0 km/h (0 Bft) N 0,00 h 0,0 UV-I -3,5 C -2,9 C 0,0 km/h (0 Bft)
07.04.2015 01:00 -1,9 C 17,4 C -1,6 C -2,5 C -3,6 C 0,0 C 82 % 85 % 0 % 1034,9 hPa 0,0 l/m 0,0 km/h (0 Bft) N 0,00 h 0,0 UV-I -4,6 C -3,6 C 0,0 km/h (0 Bft)
07.04.2015 02:00 -2,9 C 17,3 C -2,2 C -3,3 C -4,0 C 0,0 C 83 % 87 % 0 % 1035,2 hPa 0,0 l/m 0,0 km/h (0 Bft) N 0,00 h 0,0 UV-I -5,4 C -4,0 C 0,0 km/h (0 Bft)
07.04.2015 03:00 -3,6 C 17,2 C -2,6 C -3,8 C -4,2 C 0,0 C 84 % 87 % 0 % 1035,5 hPa 0,0 l/m 0,0 km/h (0 Bft) N 0,00 h 0,1 UV-I -5,8 C -4,2 C 0,0 km/h (0 Bft)
07.04.2015 04:00 -4,0 C 17,0 C -3,0 C -4,2 C -4,6 C 0,0 C 85 % 88 % 0 % 1035,3 hPa 0,0 l/m 0,0 km/h (0 Bft) N 0,00 h 0,0 UV-I -6,1 C -4,6 C 0,0 km/h (0 Bft)
07.04.2015 05:00 -4,2 C 16,9 C -3,3 C -4,4 C -4,8 C 0,0 C 86 % 88 % 0 % 1035,4 hPa 0,0 l/m 0,0 km/h (0 Bft) N 0,00 h 0,0 UV-I -6,3 C -4,8 C 0,0 km/h (0 Bft)
07.04.2015 06:00 -4,1 C 16,7 C -3,3 C -4,2 C -4,5 C 0,0 C 86 % 88 % 0 % 1035,4 hPa 0,0 l/m 0,0 km/h (0 Bft) N 0,00 h 0,1 UV-I -6,0 C -4,5 C 0,0 km/h (0 Bft)
07.04.2015 07:00 -2,8 C 16,4 C -1,6 C 1,5 C 1,5 C 4,3 C 88 % 89 % 73 % 1036,3 hPa 0,0 l/m 0,1 km/h (0 Bft) N 0,83 h 0,7 UV-I -4,5 C 1,5 C 0,5 km/h (0 Bft)
07.04.2015 08:00 -1,2 C 16,1 C 0,9 C 7,6 C 7,6 C 8,8 C 87 % 87 % 100 % 1036,3 hPa 0,0 l/m 1,5 km/h (1 Bft) S-SW 1,00 h 1,4 UV-I -3,0 C 7,6 C 2,8 km/h (1 Bft)
07.04.2015 09:00 1,9 C 16,0 C 2,9 C 8,2 C 8,2 C 6,3 C 82 % 84 % 99 % 1036,3 hPa 0,0 l/m 3,3 km/h (1 Bft) S-SW 0,92 h 0,0 UV-I -0,9 C 8,1 C 4,7 km/h (1 Bft)
07.04.2015 10:00 4,8 C 16,0 C 6,6 C 7,6 C 7,6 C 2,8 C 73 % 75 % 74 % 1036,5 hPa 0,0 l/m 6,2 km/h (2 Bft) W-SW 0,17 h 0,0 UV-I 0,4 C 6,7 C 9,4 km/h (2 Bft)
07.04.2015 11:00 7,1 C 16,1 C 10,1 C 9,3 C 9,1 C 2,1 C 64 % 62 % 56 % 1036,4 hPa 0,0 l/m 7,9 km/h (2 Bft) W-SW 0,00 h 0,0 UV-I 0,8 C 7,9 C 10,6 km/h (2 Bft)
07.04.2015 12:00 8,6 C 16,4 C 13,4 C 12,2 C 12,1 C 3,6 C 58 % 52 % 82 % 1035,7 hPa 0,0 l/m 7,6 km/h (2 Bft) W-SW 0,75 h 0,0 UV-I 0,8 C 11,8 C 9,8 km/h (2 Bft)
07.04.2015 13:00 10,3 C 16,6 C 15,7 C 15,1 C 15,0 C 4,7 C 54 % 46 % 100 % 1035,2 hPa 0,0 l/m 7,6 km/h (2 Bft) W-SW 1,00 h 0,0 UV-I 1,4 C 15,0 C 10,3 km/h (2 Bft)
07.04.2015 14:00 11,0 C 16,9 C 14,4 C 14,6 C 14,5 C 3,6 C 51 % 47 % 94 % 1034,3 hPa 0,0 l/m 7,5 km/h (2 Bft) W-SW 0,83 h 0,0 UV-I 1,3 C 14,5 C 9,7 km/h (2 Bft)
07.04.2015 15:00 12,1 C 17,3 C 13,1 C 16,4 C 16,4 C 4,3 C 46 % 49 % 100 % 1033,4 hPa 0,0 l/m 7,7 km/h (2 Bft) W-SW 1,00 h 0,0 UV-I 0,7 C 16,4 C 10,2 km/h (2 Bft)
07.04.2015 16:00 12,5 C 17,6 C 13,4 C 16,2 C 16,1 C 3,7 C 45 % 49 % 94 % 1032,8 hPa 0,0 l/m 7,6 km/h (2 Bft) W-SW 0,83 h 0,0 UV-I 0,9 C 16,1 C 10,4 km/h (2 Bft)
07.04.2015 17:00 12,6 C 17,8 C 13,6 C 15,7 C 15,7 C 3,1 C 44 % 48 % 82 % 1032,4 hPa 0,0 l/m 5,8 km/h (2 Bft) W-SW 0,25 h 0,0 UV-I 0,7 C 15,7 C 6,6 km/h (2 Bft)
07.04.2015 18:00 12,4 C 18,0 C 12,1 C 14,5 C 14,5 C 2,1 C 45 % 50 % 55 % 1032,2 hPa 0,0 l/m 4,6 km/h (1 Bft) W-SW 0,33 h 0,0 UV-I 0,7 C 14,5 C 6,2 km/h (2 Bft)
07.04.2015 19:00 11,1 C 18,0 C 10,0 C 11,2 C 10,9 C 0,3 C 51 % 57 % 7 % 1032,0 hPa 0,0 l/m 2,1 km/h (1 Bft) SW 0,00 h 0,0 UV-I 1,4 C 10,9 C 2,1 km/h (1 Bft)
07.04.2015 20:00 9,2 C 18,0 C 8,0 C 8,7 C 7,6 C 0,0 C 58 % 65 % 0 % 1032,0 hPa 0,0 l/m 0,6 km/h (0 Bft) N-NW 0,00 h 0,1 UV-I 1,5 C 7,6 C 0,9 km/h (0 Bft)
07.04.2015 21:00 7,5 C 18,0 C 6,5 C 7,1 C 6,1 C 0,0 C 64 % 70 % 0 % 1032,1 hPa 0,0 l/m 0,2 km/h (0 Bft) N 0,00 h 0,4 UV-I 1,2 C 6,1 C 0,4 km/h (0 Bft)
07.04.2015 22:00 6,2 C 18,0 C 5,8 C 6,0 C 5,6 C 0,0 C 70 % 74 % 0 % 1032,4 hPa 0,0 l/m 0,1 km/h (0 Bft) N 0,00 h 0,9 UV-I 1,3 C 5,6 C 0,0 km/h (0 Bft)
07.04.2015 23:00 6,4 C 18,0 C 6,0 C 6,4 C 6,4 C 0,0 C 72 % 76 % 0 % 1032,1 hPa 0,0 l/m 0,5 km/h (0 Bft) W-SW 0,00 h 2,5 UV-I 1,7 C 6,4 C 0,3 km/h (0 Bft)
08.04.2015 00:00 6,8 C 18,2 C 6,3 C 6,8 C 6,8 C 0,0 C 72 % 76 % 0 % 1031,7 hPa 0,0 l/m 0,8 km/h (0 Bft) W 0,00 h 2,8 UV-I 2,1 C 6,8 C 1,1 km/h (1 Bft)
08.04.2015 01:00 6,8 C 18,2 C 6,3 C 6,8 C 6,7 C 0,0 C 73 % 77 % 0 % 1031,4 hPa 0,0 l/m 2,3 km/h (1 Bft) W-SW 0,00 h 2,9 UV-I 2,3 C 6,7 C 3,5 km/h (1 Bft)
08.04.2015 02:00 6,7 C 18,2 C 6,3 C 6,7 C 6,6 C 0,0 C 73 % 77 % 0 % 1031,4 hPa 0,0 l/m 0,7 km/h (0 Bft) S 0,00 h 3,4 UV-I 2,3 C 6,6 C 1,7 km/h (1 Bft)
08.04.2015 03:00 6,9 C 18,1 C 6,4 C 6,9 C 6,9 C 0,0 C 74 % 78 % 0 % 1030,8 hPa 0,0 l/m 2,7 km/h (1 Bft) W-SW 0,00 h 4,0 UV-I 2,6 C 6,9 C 3,5 km/h (1 Bft)
08.04.2015 04:00 6,9 C 18,1 C 6,3 C 6,9 C 6,8 C 0,0 C 74 % 79 % 0 % 1030,7 hPa 0,0 l/m 0,3 km/h (0 Bft) SW 0,00 h 4,0 UV-I 2,7 C 6,8 C 0,6 km/h (0 Bft)
08.04.2015 05:00 6,9 C 18,1 C 6,4 C 6,9 C 6,8 C 0,0 C 76 % 80 % 0 % 1030,3 hPa 0,0 l/m 1,2 km/h (1 Bft) W-SW 0,00 h 4,2 UV-I 2,9 C 6,8 C 1,7 km/h (1 Bft)
08.04.2015 06:00 7,2 C 18,1 C 6,5 C 7,1 C 7,0 C 0,0 C 78 % 81 % 0 % 1030,4 hPa 0,0 l/m 3,4 km/h (1 Bft) W-SW 0,00 h 4,7 UV-I 3,5 C 7,0 C 4,8 km/h (1 Bft)
08.04.2015 07:00 7,1 C 18,1 C 6,7 C 7,0 C 6,8 C 0,0 C 78 % 81 % 0 % 1030,3 hPa 0,0 l/m 4,6 km/h (1 Bft) W-SW 0,00 h 5,0 UV-I 3,6 C 6,4 C 6,2 km/h (2 Bft)
08.04.2015 08:00 6,8 C 18,1 C 6,7 C 7,1 C 7,0 C 0,3 C 79 % 82 % 7 % 1031,1 hPa 0,0 l/m 3,4 km/h (1 Bft) W-SW 0,00 h 4,8 UV-I 3,5 C 6,9 C 5,2 km/h (1 Bft)
08.04.2015 09:00 6,8 C 18,1 C 7,1 C 7,0 C 7,0 C 0,2 C 80 % 82 % 5 % 1031,3 hPa 0,0 l/m 5,1 km/h (1 Bft) W-SW 0,00 h 3,5 UV-I 3,6 C 6,5 C 5,8 km/h (2 Bft)
08.04.2015 10:00 7,2 C 18,1 C 7,6 C 7,8 C 7,8 C 0,6 C 79 % 80 % 17 % 1031,4 hPa 0,0 l/m 4,7 km/h (1 Bft) W-SW 0,00 h 0,8 UV-I 3,7 C 7,4 C 6,3 km/h (2 Bft)
08.04.2015 11:00 7,6 C 18,0 C 8,0 C 8,5 C 8,5 C 1,0 C 77 % 78 % 26 % 1031,7 hPa 0,0 l/m 4,0 km/h (1 Bft) SW 0,00 h 0,2 UV-I 3,7 C 8,5 C 5,2 km/h (1 Bft)
08.04.2015 12:00 8,0 C 18,1 C 8,5 C 9,0 C 9,0 C 1,0 C 75 % 76 % 27 % 1032,1 hPa 0,0 l/m 4,5 km/h (1 Bft) SW 0,00 h 0,1 UV-I 3,9 C 8,8 C 8,2 km/h (2 Bft)
08.04.2015 13:00 8,0 C 18,1 C 8,4 C 8,9 C 8,9 C 0,9 C 77 % 78 % 25 % 1032,1 hPa 0,0 l/m 3,5 km/h (1 Bft) W-SW 0,00 h 0,0 UV-I 4,2 C 8,9 C 4,4 km/h (1 Bft)
08.04.2015 14:00 7,7 C 18,2 C 8,4 C 9,0 C 9,0 C 1,3 C 80 % 80 % 34 % 1032,2 hPa 0,0 l/m 3,3 km/h (1 Bft) S 0,00 h 0,0 UV-I 4,4 C 9,0 C 4,9 km/h (1 Bft)
08.04.2015 15:00 8,2 C 18,2 C 9,1 C 9,9 C 9,9 C 1,6 C 78 % 78 % 43 % 1032,1 hPa 0,0 l/m 2,3 km/h (1 Bft) W-SW 0,00 h 0,0 UV-I 4,7 C 9,9 C 3,5 km/h (1 Bft)
08.04.2015 16:00 8,7 C 18,3 C 9,2 C 9,9 C 9,9 C 1,2 C 77 % 77 % 31 % 1032,2 hPa 0,0 l/m 1,9 km/h (1 Bft) N-NO 0,00 h 0,0 UV-I 4,9 C 9,9 C 2,7 km/h (1 Bft)
08.04.2015 17:00 8,9 C 18,4 C 9,1 C 9,8 C 9,8 C 1,0 C 77 % 78 % 25 % 1032,5 hPa 0,0 l/m 1,9 km/h (1 Bft) N-NW 0,00 h 0,0 UV-I 5,0 C 9,8 C 2,9 km/h (1 Bft)
08.04.2015 18:00 9,0 C 18,4 C 9,1 C 9,6 C 9,6 C 0,6 C 76 % 77 % 17 % 1032,2 hPa 0,0 l/m 2,0 km/h (1 Bft) NW 0,00 h 0,0 UV-I 5,0 C 9,6 C 2,0 km/h (1 Bft)
08.04.2015 19:00 8,7 C 18,5 C 8,3 C 8,7 C 8,7 C 0,1 C 77 % 78 % 1 % 1032,2 hPa 0,0 l/m 0,6 km/h (0 Bft) O-NO 0,00 h 0,4 UV-I 4,8 C 8,7 C 0,6 km/h (0 Bft)
08.04.2015 20:00 8,2 C 18,6 C 7,7 C 8,1 C 7,9 C 0,0 C 78 % 81 % 0 % 1032,8 hPa 0,0 l/m 0,0 km/h (0 Bft) N 0,00 h 1,5 UV-I 4,6 C 7,9 C 0,0 km/h (0 Bft)
08.04.2015 21:00 7,7 C 18,6 C 7,3 C 7,6 C 7,5 C 0,0 C 80 % 83 % 0 % 1032,8 hPa 0,0 l/m 0,0 km/h (0 Bft) N 0,00 h 2,5 UV-I 4,4 C 7,5 C 0,0 km/h (0 Bft)
08.04.2015 22:00 7,0 C 18,6 C 7,0 C 7,2 C 7,2 C 0,2 C 81 % 84 % 0 % 1033,1 hPa 0,0 l/m 0,0 km/h (0 Bft) N 0,00 h 3,5 UV-I 3,9 C 7,2 C 0,0 km/h (0 Bft)
08.04.2015 23:00 6,4 C 18,7 C 6,8 C 7,0 C 7,0 C 0,5 C 82 % 85 % 0 % 1033,4 hPa 0,0 l/m 0,0 km/h (0 Bft) N 0,00 h 3,8 UV-I 3,6 C 7,0 C 0,0 km/h (0 Bft)
09.04.2015 00:00 6,0 C 18,8 C 6,7 C 6,9 C 6,9 C 0,9 C 83 % 86 % 0 % 1033,3 hPa 0,0 l/m 0,1 km/h (0 Bft) N 0,00 h 4,4 UV-I 3,3 C 6,9 C 0,4 km/h (0 Bft)
09.04.2015 01:00 5,8 C 18,7 C 6,6 C 6,8 C 6,8 C 1,0 C 83 % 86 % 0 % 1033,0 hPa 0,0 l/m 0,0 km/h (0 Bft) N 0,00 h 4,7 UV-I 3,1 C 6,8 C 0,0 km/h (0 Bft)
09.04.2015 02:00 5,6 C 18,8 C 6,4 C 6,7 C 6,7 C 1,1 C 84 % 87 % 0 % 1032,8 hPa 0,0 l/m 0,1 km/h (0 Bft) N 0,00 h 4,9 UV-I 3,1 C 6,7 C 0,0 km/h (0 Bft)
09.04.2015 03:00 6,1 C 18,7 C 6,6 C 7,1 C 7,1 C 1,0 C 82 % 86 % 0 % 1032,5 hPa 0,0 l/m 0,5 km/h (0 Bft) O-NO 0,00 h 6,1 UV-I 3,3 C 7,1 C 0,9 km/h (0 Bft)
09.04.2015 04:00 6,3 C 18,6 C 6,5 C 6,9 C 6,9 C 0,6 C 81 % 85 % 0 % 1032,1 hPa 0,0 l/m 0,0 km/h (0 Bft) N 0,00 h 5,2 UV-I 3,3 C 6,9 C 0,0 km/h (0 Bft)
09.04.2015 05:00 6,2 C 18,6 C 6,4 C 6,8 C 6,8 C 0,6 C 81 % 85 % 0 % 1032,0 hPa 0,0 l/m 0,0 km/h (0 Bft) N 0,00 h 5,2 UV-I 3,2 C 6,8 C 0,0 km/h (0 Bft)
09.04.2015 06:00 6,5 C 18,6 C 6,6 C 6,9 C 6,9 C 0,4 C 80 % 84 % 1 % 1031,8 hPa 0,0 l/m 0,4 km/h (0 Bft) O-SO 0,00 h 5,5 UV-I 3,3 C 6,9 C 0,7 km/h (0 Bft)
09.04.2015 07:00 6,7 C 18,6 C 6,8 C 7,2 C 7,2 C 0,5 C 80 % 83 % 13 % 1031,9 hPa 0,0 l/m 0,1 km/h (0 Bft) N 0,00 h 5,2 UV-I 3,5 C 7,2 C 0,2 km/h (0 Bft)
09.04.2015 08:00 7,3 C 18,6 C 7,7 C 8,5 C 8,5 C 1,2 C 79 % 82 % 31 % 1031,8 hPa 0,0 l/m 0,7 km/h (0 Bft) O-SO 0,00 h 1,7 UV-I 3,9 C 8,5 C 1,1 km/h (1 Bft)
09.04.2015 09:00 8,2 C 18,6 C 8,9 C 10,1 C 10,1 C 1,9 C 77 % 78 % 50 % 1031,6 hPa 0,0 l/m 1,8 km/h (1 Bft) S 0,00 h 0,3 UV-I 4,3 C 10,1 C 3,7 km/h (1 Bft)
09.04.2015 10:00 9,1 C 18,6 C 11,0 C 13,0 C 13,0 C 3,9 C 74 % 72 % 87 % 1031,7 hPa 0,0 l/m 3,4 km/h (1 Bft) W-SW 0,67 h 0,1 UV-I 4,7 C 13,0 C 4,8 km/h (1 Bft)
09.04.2015 11:00 9,9 C 18,6 C 13,7 C 13,6 C 13,6 C 3,7 C 72 % 66 % 94 % 1030,5 hPa 0,0 l/m 3,6 km/h (1 Bft) W-SW 1,00 h 0,0 UV-I 5,1 C 13,6 C 4,2 km/h (1 Bft)
09.04.2015 12:00 11,5 C 18,6 C 16,9 C 17,8 C 17,8 C 6,2 C 68 % 58 % 100 % 1029,6 hPa 0,0 l/m 2,1 km/h (1 Bft) W-NW 1,00 h 0,2 UV-I 5,9 C 17,8 C 3,8 km/h (1 Bft)
09.04.2015 13:00 13,3 C 18,7 C 19,0 C 19,7 C 19,7 C 6,4 C 64 % 53 % 100 % 1028,9 hPa 0,0 l/m 3,4 km/h (1 Bft) W-SW 1,00 h 0,1 UV-I 6,6 C 19,7 C 3,8 km/h (1 Bft)
09.04.2015 14:00 14,9 C 18,7 C 18,9 C 21,1 C 21,1 C 6,2 C 60 % 52 % 100 % 1028,6 hPa 0,0 l/m 2,6 km/h (1 Bft) W-SW 1,00 h 0,1 UV-I 7,2 C 21,1 C 4,3 km/h (1 Bft)
09.04.2015 15:00 15,6 C 19,7 C 16,5 C 21,7 C 21,7 C 6,2 C 59 % 59 % 100 % 1027,8 hPa 0,0 l/m 2,4 km/h (1 Bft) SW 1,00 h 0,1 UV-I 7,7 C 21,7 C 3,6 km/h (1 Bft)
09.04.2015 16:00 15,0 C 20,1 C 15,6 C 20,4 C 20,4 C 5,3 C 61 % 62 % 100 % 1027,1 hPa 0,0 l/m 3,3 km/h (1 Bft) O-NO 1,00 h 0,0 UV-I 7,6 C 20,4 C 4,0 km/h (1 Bft)
09.04.2015 17:00 15,3 C 20,4 C 16,9 C 20,7 C 20,7 C 5,4 C 60 % 59 % 100 % 1026,5 hPa 0,0 l/m 2,3 km/h (1 Bft) O-NO 1,00 h 0,0 UV-I 7,6 C 20,7 C 3,0 km/h (1 Bft)
09.04.2015 18:00 15,5 C 20,6 C 15,4 C 19,2 C 19,2 C 3,7 C 60 % 61 % 90 % 1026,0 hPa 0,0 l/m 0,9 km/h (0 Bft) O-NO 1,00 h 0,0 UV-I 7,7 C 19,2 C 1,4 km/h (1 Bft)
09.04.2015 19:00 14,5 C 20,8 C 13,0 C 15,2 C 15,0 C 0,8 C 63 % 69 % 22 % 1025,7 hPa 0,0 l/m 0,1 km/h (0 Bft) N 0,50 h 0,0 UV-I 7,6 C 15,0 C 0,2 km/h (0 Bft)
09.04.2015 20:00 11,7 C 20,9 C 9,9 C 11,1 C 9,9 C 0,0 C 71 % 76 % 0 % 1026,0 hPa 0,0 l/m 0,0 km/h (0 Bft) N 0,00 h 0,0 UV-I 6,5 C 9,9 C 0,0 km/h (0 Bft)
09.04.2015 21:00 9,3 C 21,0 C 8,0 C 8,6 C 7,3 C 0,0 C 78 % 81 % 0 % 1026,0 hPa 0,0 l/m 0,0 km/h (0 Bft) N 0,00 h 0,0 UV-I 5,5 C 7,3 C 0,0 km/h (0 Bft)
09.04.2015 22:00 6,9 C 21,2 C 6,5 C 6,5 C 5,7 C 0,0 C 81 % 85 % 0 % 1025,7 hPa 0,0 l/m 0,0 km/h (0 Bft) N 0,00 h 0,1 UV-I 3,9 C 5,7 C 0,0 km/h (0 Bft)
09.04.2015 23:00 5,1 C 21,1 C 5,5 C 5,0 C 4,7 C 0,0 C 83 % 87 % 0 % 1025,5 hPa 0,0 l/m 0,1 km/h (0 Bft) N 0,00 h 0,2 UV-I 2,5 C 4,7 C 0,3 km/h (0 Bft)
10.04.2015 00:00 4,0 C 21,0 C 4,7 C 4,0 C 3,8 C 0,0 C 85 % 87 % 0 % 1025,6 hPa 0,0 l/m 0,0 km/h (0 Bft) N 0,00 h 0,3 UV-I 1,7 C 3,8 C 0,0 km/h (0 Bft)
10.04.2015 01:00 3,0 C 20,8 C 3,9 C 2,9 C 2,7 C 0,0 C 85 % 88 % 0 % 1025,4 hPa 0,0 l/m 0,0 km/h (0 Bft) N 0,00 h 0,2 UV-I 0,8 C 2,7 C 0,0 km/h (0 Bft)
10.04.2015 02:00 2,2 C 20,6 C 3,2 C 2,1 C 1,9 C 0,0 C 86 % 89 % 0 % 1025,2 hPa 0,0 l/m 0,0 km/h (0 Bft) N 0,00 h 0,1 UV-I 0,1 C 1,9 C 0,0 km/h (0 Bft)
10.04.2015 03:00 1,9 C 20,4 C 2,8 C 1,8 C 1,6 C 0,0 C 87 % 89 % 0 % 1024,8 hPa 0,0 l/m 0,0 km/h (0 Bft) N 0,00 h 0,2 UV-I -0,0 C 1,6 C 0,0 km/h (0 Bft)
10.04.2015 04:00 1,2 C 20,2 C 2,3 C 1,1 C 0,9 C 0,0 C 88 % 89 % 0 % 1024,7 hPa 0,0 l/m 0,0 km/h (0 Bft) N 0,00 h 0,2 UV-I -0,7 C 0,9 C 0,0 km/h (0 Bft)
10.04.2015 05:00 0,9 C 19,9 C 1,9 C 0,8 C 0,7 C 0,0 C 88 % 89 % 0 % 1024,9 hPa 0,0 l/m 0,0 km/h (0 Bft) N 0,00 h 0,5 UV-I -0,9 C 0,7 C 0,0 km/h (0 Bft)
10.04.2015 06:00 0,3 C 19,7 C 1,6 C 0,4 C 0,3 C 0,0 C 88 % 90 % 1 % 1024,8 hPa 0,0 l/m 0,0 km/h (0 Bft) N 0,00 h 0,5 UV-I -1,4 C 0,3 C 0,0 km/h (0 Bft)
10.04.2015 07:00 1,1 C 19,5 C 3,0 C 5,7 C 5,7 C 4,5 C 90 % 90 % 83 % 1024,9 hPa 0,0 l/m 0,0 km/h (0 Bft) N 0,92 h 5,0 UV-I -0,3 C 5,7 C 0,0 km/h (0 Bft)
10.04.2015 08:00 3,4 C 19,2 C 5,5 C 13,8 C 13,8 C 10,4 C 91 % 89 % 100 % 1025,0 hPa 0,0 l/m 0,2 km/h (0 Bft) N 1,00 h 10,5 UV-I 2,0 C 13,8 C 0,5 km/h (0 Bft)
10.04.2015 09:00 7,3 C 18,8 C 8,2 C 16,7 C 16,7 C 9,4 C 90 % 88 % 100 % 1024,9 hPa 0,0 l/m 1,0 km/h (0 Bft) SW 1,00 h 0,0 UV-I 5,8 C 16,7 C 1,6 km/h (1 Bft)
10.04.2015 10:00 11,9 C 18,8 C 13,4 C 17,6 C 17,6 C 5,7 C 77 % 80 % 100 % 1024,6 hPa 0,0 l/m 2,8 km/h (1 Bft) SW 1,00 h 0,0 UV-I 8,0 C 17,6 C 3,3 km/h (1 Bft)
10.04.2015 11:00 14,8 C 19,0 C 19,6 C 18,6 C 18,6 C 3,8 C 69 % 62 % 98 % 1024,4 hPa 0,0 l/m 2,1 km/h (1 Bft) S 1,00 h 0,0 UV-I 9,1 C 18,6 C 3,3 km/h (1 Bft)
10.04.2015 12:00 16,9 C 19,4 C 22,7 C 22,5 C 22,5 C 5,6 C 60 % 49 % 100 % 1024,0 hPa 0,0 l/m 2,9 km/h (1 Bft) SW 1,00 h 0,1 UV-I 9,1 C 22,5 C 4,1 km/h (1 Bft)
10.04.2015 13:00 18,8 C 19,8 C 23,9 C 24,4 C 24,4 C 5,5 C 53 % 45 % 100 % 1023,6 hPa 0,0 l/m 4,0 km/h (1 Bft) W-SW 1,00 h 0,2 UV-I 9,0 C 24,4 C 5,3 km/h (1 Bft)
10.04.2015 14:00 20,0 C 20,3 C 24,1 C 25,5 C 25,5 C 5,5 C 49 % 43 % 100 % 1023,3 hPa 0,0 l/m 3,1 km/h (1 Bft) SW 1,00 h 0,1 UV-I 8,9 C 25,5 C 3,5 km/h (1 Bft)
10.04.2015 15:00 20,8 C 20,7 C 22,1 C 25,8 C 25,8 C 5,0 C 46 % 46 % 100 % 1022,6 hPa 0,0 l/m 3,0 km/h (1 Bft) SW 1,00 h 0,1 UV-I 8,9 C 25,8 C 3,2 km/h (1 Bft)
10.04.2015 16:00 21,1 C 21,1 C 20,3 C 26,3 C 26,3 C 5,2 C 46 % 50 % 100 % 1022,0 hPa 0,0 l/m 1,9 km/h (1 Bft) W 1,00 h 0,0 UV-I 8,9 C 26,3 C 1,8 km/h (1 Bft)
10.04.2015 17:00 20,4 C 21,4 C 21,6 C 25,8 C 25,8 C 5,5 C 46 % 47 % 100 % 1021,6 hPa 0,0 l/m 2,0 km/h (1 Bft) O-SO 1,00 h 0,0 UV-I 8,3 C 25,8 C 2,7 km/h (1 Bft)
10.04.2015 18:00 19,0 C 21,5 C 18,7 C 22,7 C 22,7 C 3,6 C 49 % 52 % 90 % 1020,9 hPa 0,0 l/m 2,3 km/h (1 Bft) O-NO 1,00 h 0,0 UV-I 8,0 C 22,7 C 2,6 km/h (1 Bft)
10.04.2015 19:00 17,5 C 21,5 C 16,0 C 18,3 C 18,2 C 0,8 C 55 % 61 % 22 % 1020,7 hPa 0,0 l/m 2,5 km/h (1 Bft) O-NO 0,58 h 0,0 UV-I 8,4 C 18,2 C 2,4 km/h (1 Bft)
10.04.2015 20:00 14,3 C 21,5 C 12,5 C 13,8 C 12,9 C 0,0 C 65 % 70 % 0 % 1020,7 hPa 0,0 l/m 0,3 km/h (0 Bft) O-NO 0,00 h 0,0 UV-I 7,7 C 12,9 C 0,2 km/h (0 Bft)
10.04.2015 21:00 11,8 C 21,5 C 10,6 C 11,3 C 10,2 C 0,0 C 73 % 77 % 0 % 1020,8 hPa 0,0 l/m 0,0 km/h (0 Bft) N 0,00 h 0,0 UV-I 7,1 C 10,2 C 0,2 km/h (0 Bft)
10.04.2015 22:00 10,2 C 21,9 C 9,3 C 9,8 C 9,1 C 0,0 C 78 % 81 % 0 % 1020,7 hPa 0,0 l/m 0,0 km/h (0 Bft) N 0,00 h 0,2 UV-I 6,5 C 9,1 C 0,0 km/h (0 Bft)
10.04.2015 23:00 8,6 C 21,9 C 8,1 C 8,3 C 7,8 C 0,0 C 80 % 83 % 0 % 1020,2 hPa 0,0 l/m 0,0 km/h (0 Bft) N 0,00 h 0,7 UV-I 5,3 C 7,8 C 0,0 km/h (0 Bft)
11.04.2015 00:00 7,0 C 21,9 C 7,2 C 6,9 C 6,6 C 0,0 C 82 % 85 % 0 % 1020,2 hPa 0,0 l/m 0,0 km/h (0 Bft) N 0,00 h 0,7 UV-I 4,1 C 6,6 C 0,0 km/h (0 Bft)
11.04.2015 01:00 5,9 C 21,8 C 6,3 C 6,0 C 6,0 C 0,1 C 84 % 87 % 0 % 1020,0 hPa 0,0 l/m 0,0 km/h (0 Bft) N 0,00 h 1,0 UV-I 3,3 C 6,0 C 0,0 km/h (0 Bft)
11.04.2015 02:00 4,8 C 21,7 C 5,4 C 4,9 C 4,8 C 0,1 C 84 % 87 % 0 % 1019,5 hPa 0,0 l/m 0,0 km/h (0 Bft) N 0,00 h 0,7 UV-I 2,4 C 4,8 C 0,0 km/h (0 Bft)
11.04.2015 03:00 4,0 C 21,5 C 4,7 C 4,0 C 3,9 C 0,0 C 85 % 88 % 0 % 1019,2 hPa 0,0 l/m 0,0 km/h (0 Bft) N 0,00 h 0,6 UV-I 1,7 C 3,9 C 0,2 km/h (0 Bft)
11.04.2015 04:00 3,5 C 21,3 C 4,3 C 3,6 C 3,6 C 0,1 C 87 % 89 % 0 % 1019,1 hPa 0,0 l/m 0,0 km/h (0 Bft) N 0,00 h 1,8 UV-I 1,5 C 3,6 C 0,0 km/h (0 Bft)
11.04.2015 05:00 3,2 C 21,0 C 4,2 C 3,4 C 3,4 C 0,2 C 87 % 89 % 0 % 1019,1 hPa 0,0 l/m 0,0 km/h (0 Bft) N 0,00 h 2,0 UV-I 1,3 C 3,4 C 0,0 km/h (0 Bft)
11.04.2015 06:00 3,2 C 20,9 C 4,3 C 3,6 C 3,6 C 0,4 C 87 % 89 % 5 % 1019,0 hPa 0,0 l/m 0,0 km/h (0 Bft) N 0,42 h 3,0 UV-I 1,2 C 3,6 C 0,2 km/h (0 Bft)
11.04.2015 07:00 3,2 C 20,6 C 5,4 C 6,0 C 6,0 C 2,8 C 87 % 89 % 67 % 1019,0 hPa 0,0 l/m 0,0 km/h (0 Bft) N 0,92 h 7,8 UV-I 1,2 C 6,0 C 0,0 km/h (0 Bft)
11.04.2015 08:00 6,4 C 20,2 C 8,5 C 11,4 C 11,4 C 5,0 C 90 % 88 % 100 % 1019,2 hPa 0,0 l/m 0,2 km/h (0 Bft) N 1,00 h 17,0 UV-I 4,9 C 11,4 C 1,0 km/h (0 Bft)
11.04.2015 09:00 12,3 C 19,9 C 12,8 C 17,5 C 17,5 C 5,1 C 77 % 80 % 98 % 1019,3 hPa 0,0 l/m 1,2 km/h (1 Bft) W-SW 1,00 h 4,0 UV-I 8,3 C 17,5 C 2,1 km/h (1 Bft)
11.04.2015 10:00 16,1 C 20,0 C 16,8 C 19,2 C 19,2 C 3,1 C 57 % 61 % 81 % 1019,7 hPa 0,0 l/m 6,8 km/h (2 Bft) SW 0,17 h 0,0 UV-I 7,5 C 19,2 C 10,6 km/h (2 Bft)
11.04.2015 11:00 18,0 C 20,0 C 20,4 C 20,8 C 20,8 C 2,8 C 49 % 48 % 75 % 1020,0 hPa 0,0 l/m 7,8 km/h (2 Bft) W-SW 0,00 h 0,0 UV-I 7,1 C 20,8 C 10,0 km/h (2 Bft)
11.04.2015 12:00 19,2 C 20,0 C 21,7 C 22,1 C 22,1 C 2,9 C 46 % 44 % 77 % 1020,1 hPa 0,0 l/m 7,1 km/h (2 Bft) W-SW 0,17 h 0,0 UV-I 7,2 C 22,1 C 9,3 km/h (2 Bft)
11.04.2015 13:00 20,1 C 20,0 C 22,4 C 23,4 C 23,4 C 3,3 C 44 % 42 % 87 % 1019,9 hPa 0,0 l/m 8,5 km/h (2 Bft) W-SW 0,75 h 0,1 UV-I 7,3 C 23,4 C 12,1 km/h (2 Bft)
11.04.2015 14:00 20,7 C 20,8 C 22,6 C 23,8 C 23,8 C 3,2 C 43 % 41 % 83 % 1019,8 hPa 0,0 l/m 8,3 km/h (2 Bft) W-SW 0,33 h 0,1 UV-I 7,5 C 23,8 C 13,1 km/h (3 Bft)
11.04.2015 15:00 19,7 C 21,5 C 20,5 C 21,6 C 21,6 C 1,9 C 45 % 46 % 50 % 1019,9 hPa 0,0 l/m 10,7 km/h (2 Bft) SW 0,00 h 0,0 UV-I 7,5 C 21,6 C 18,1 km/h (3 Bft)
11.04.2015 16:00 19,0 C 21,8 C 19,4 C 21,3 C 21,3 C 2,3 C 46 % 47 % 58 % 1019,8 hPa 0,0 l/m 7,4 km/h (2 Bft) SO 0,42 h 0,0 UV-I 6,9 C 21,3 C 11,5 km/h (2 Bft)
11.04.2015 17:00 19,4 C 21,9 C 20,3 C 22,3 C 22,3 C 2,9 C 46 % 46 % 77 % 1019,8 hPa 0,0 l/m 7,0 km/h (2 Bft) W-SW 0,42 h 0,0 UV-I 7,5 C 22,3 C 9,2 km/h (2 Bft)
11.04.2015 18:00 18,5 C 22,0 C 18,1 C 19,0 C 18,9 C 0,5 C 49 % 51 % 13 % 1019,9 hPa 0,0 l/m 8,5 km/h (2 Bft) W-SW 0,00 h 0,0 UV-I 7,6 C 18,9 C 12,6 km/h (3 Bft)
11.04.2015 19:00 16,8 C 22,1 C 16,0 C 16,7 C 16,3 C 0,0 C 55 % 59 % 0 % 1020,4 hPa 0,0 l/m 8,2 km/h (2 Bft) W-SW 0,00 h 0,3 UV-I 7,8 C 16,3 C 11,1 km/h (2 Bft)
11.04.2015 20:00 15,1 C 22,1 C 14,1 C 14,9 C 14,4 C 0,0 C 62 % 67 % 0 % 1021,3 hPa 0,0 l/m 5,6 km/h (1 Bft) W-SW 0,00 h 2,7 UV-I 8,0 C 14,4 C 7,0 km/h (2 Bft)
11.04.2015 21:00 14,5 C 22,0 C 13,5 C 14,2 C 13,7 C 0,0 C 66 % 70 % 0 % 1021,9 hPa 0,0 l/m 5,1 km/h (1 Bft) W-SW 0,00 h 3,8 UV-I 8,1 C 13,7 C 8,4 km/h (2 Bft)
11.04.2015 22:00 13,6 C 22,0 C 12,4 C 13,2 C 12,2 C 0,0 C 68 % 72 % 0 % 1022,6 hPa 0,0 l/m 7,9 km/h (2 Bft) SW 0,00 h 2,6 UV-I 7,7 C 12,2 C 10,1 km/h (2 Bft)
11.04.2015 23:00 12,6 C 21,8 C 11,4 C 12,3 C 11,6 C 0,0 C 71 % 75 % 0 % 1023,4 hPa 0,0 l/m 3,6 km/h (1 Bft) S 0,00 h 3,6 UV-I 7,4 C 11,6 C 4,2 km/h (1 Bft)
12.04.2015 00:00 12,2 C 21,7 C 11,3 C 11,9 C 11,3 C 0,0 C 73 % 77 % 0 % 1023,9 hPa 0,0 l/m 5,7 km/h (1 Bft) W-SW 0,00 h 6,7 UV-I 7,6 C 11,3 C 8,8 km/h (2 Bft)
12.04.2015 01:00 12,6 C 21,6 C 11,7 C 12,3 C 11,6 C 0,0 C 74 % 77 % 0 % 1024,7 hPa 0,0 l/m 7,9 km/h (2 Bft) W-SW 0,00 h 11,7 UV-I 8,1 C 11,6 C 10,5 km/h (2 Bft)
12.04.2015 02:00 10,2 C 21,9 C 10,0 C 10,0 C 9,5 C 0,0 C 79 % 86 % 0 % 1026,0 hPa 0,0 l/m 5,1 km/h (1 Bft) NO 0,00 h 7,0 UV-I 6,8 C 9,4 C 6,0 km/h (2 Bft)
12.04.2015 03:00 8,0 C 21,5 C 7,7 C 7,8 C 7,5 C 0,0 C 78 % 88 % 0 % 1027,5 hPa 0,0 l/m 3,4 km/h (1 Bft) S-SO 0,00 h 3,5 UV-I 4,4 C 7,5 C 4,0 km/h (1 Bft)
12.04.2015 04:00 7,0 C 21,2 C 6,2 C 6,6 C 5,9 C 0,0 C 72 % 88 % 0 % 1028,5 hPa 0,0 l/m 1,6 km/h (1 Bft) SO 0,00 h 0,8 UV-I 2,4 C 5,9 C 2,6 km/h (1 Bft)
12.04.2015 05:00 5,7 C 21,1 C 5,2 C 5,2 C 4,2 C 0,0 C 75 % 89 % 0 % 1029,4 hPa 0,0 l/m 0,7 km/h (0 Bft) S 0,00 h 1,5 UV-I 1,6 C 4,2 C 1,3 km/h (1 Bft)
12.04.2015 06:00 5,5 C 20,9 C 5,4 C 5,3 C 4,9 C 0,0 C 76 % 89 % 0 % 1030,1 hPa 0,0 l/m 0,8 km/h (0 Bft) W-SW 0,00 h 4,8 UV-I 1,6 C 4,9 C 1,2 km/h (1 Bft)
12.04.2015 07:00 5,8 C 20,6 C 5,8 C 6,4 C 6,2 C 0,6 C 76 % 88 % 17 % 1030,6 hPa 0,0 l/m 0,0 km/h (0 Bft) N 0,00 h 7,0 UV-I 1,9 C 6,2 C 0,1 km/h (0 Bft)
12.04.2015 08:00 7,0 C 20,4 C 7,2 C 11,3 C 11,3 C 4,3 C 71 % 84 % 78 % 1031,2 hPa 0,0 l/m 1,1 km/h (1 Bft) S-SO 0,58 h 7,6 UV-I 2,0 C 11,3 C 1,9 km/h (1 Bft)
12.04.2015 09:00 8,3 C 20,3 C 8,4 C 13,9 C 13,9 C 5,6 C 58 % 77 % 100 % 1031,3 hPa 0,0 l/m 2,8 km/h (1 Bft) W-SW 1,00 h 0,0 UV-I 0,7 C 13,9 C 3,6 km/h (1 Bft)
12.04.2015 10:00 9,3 C 20,2 C 11,2 C 13,6 C 13,6 C 4,3 C 51 % 69 % 100 % 1031,4 hPa 0,0 l/m 2,5 km/h (1 Bft) SW 1,00 h 0,0 UV-I -0,3 C 13,6 C 2,8 km/h (1 Bft)
12.04.2015 11:00 10,4 C 20,3 C 15,8 C 14,5 C 14,5 C 4,1 C 43 % 53 % 100 % 1031,9 hPa 0,0 l/m 3,4 km/h (1 Bft) W-SW 1,00 h 0,0 UV-I -1,6 C 14,5 C 5,5 km/h (1 Bft)
12.04.2015 12:00 11,8 C 20,4 C 17,6 C 17,4 C 17,4 C 5,6 C 38 % 38 % 100 % 1031,3 hPa 0,0 l/m 2,9 km/h (1 Bft) W-SW 1,00 h 0,1 UV-I -2,0 C 17,4 C 4,3 km/h (1 Bft)
12.04.2015 13:00 13,3 C 20,6 C 18,3 C 18,5 C 18,5 C 5,2 C 41 % 37 % 100 % 1030,9 hPa 0,0 l/m 5,5 km/h (1 Bft) SW 1,00 h 0,1 UV-I 0,3 C 18,5 C 6,4 km/h (2 Bft)
12.04.2015 14:00 14,3 C 20,8 C 18,3 C 19,0 C 19,0 C 4,7 C 46 % 41 % 100 % 1030,0 hPa 0,0 l/m 5,3 km/h (1 Bft) SW 1,00 h 0,0 UV-I 2,7 C 19,0 C 7,2 km/h (2 Bft)
12.04.2015 15:00 15,3 C 21,1 C 16,7 C 20,0 C 20,0 C 4,7 C 46 % 47 % 100 % 1029,4 hPa 0,0 l/m 4,7 km/h (1 Bft) SW 1,00 h 0,0 UV-I 3,9 C 20,0 C 6,6 km/h (2 Bft)
12.04.2015 16:00 16,1 C 21,4 C 16,3 C 20,7 C 20,7 C 4,6 C 47 % 50 % 100 % 1028,5 hPa 0,0 l/m 3,3 km/h (1 Bft) S-SW 1,00 h 0,0 UV-I 4,7 C 20,7 C 3,5 km/h (1 Bft)
12.04.2015 17:00 16,3 C 21,6 C 17,2 C 20,3 C 20,3 C 4,1 C 48 % 50 % 95 % 1027,8 hPa 0,0 l/m 2,6 km/h (1 Bft) S 0,83 h 0,0 UV-I 5,1 C 20,3 C 3,2 km/h (1 Bft)
12.04.2015 18:00 15,5 C 21,8 C 15,4 C 17,7 C 17,7 C 2,3 C 50 % 53 % 59 % 1027,2 hPa 0,0 l/m 1,7 km/h (1 Bft) W 0,42 h 0,0 UV-I 4,9 C 17,7 C 2,7 km/h (1 Bft)
12.04.2015 19:00 14,1 C 21,8 C 13,3 C 14,9 C 14,9 C 0,8 C 52 % 57 % 22 % 1026,8 hPa 0,0 l/m 0,7 km/h (0 Bft) NO 0,42 h 0,0 UV-I 4,3 C 14,9 C 0,6 km/h (0 Bft)
12.04.2015 20:00 11,8 C 21,8 C 10,3 C 11,2 C 10,2 C 0,0 C 62 % 67 % 0 % 1026,4 hPa 0,0 l/m 0,4 km/h (0 Bft) W-SW 0,00 h 0,0 UV-I 4,6 C 10,2 C 0,7 km/h (0 Bft)
12.04.2015 21:00 9,2 C 21,8 C 8,3 C 8,6 C 7,2 C 0,0 C 70 % 74 % 0 % 1026,0 hPa 0,0 l/m 0,0 km/h (0 Bft) N 0,00 h 0,0 UV-I 4,0 C 7,2 C 0,3 km/h (0 Bft)
12.04.2015 22:00 8,4 C 21,7 C 7,5 C 8,1 C 7,3 C 0,0 C 75 % 78 % 0 % 1025,6 hPa 0,0 l/m 0,7 km/h (0 Bft) SO 0,00 h 0,4 UV-I 4,3 C 7,3 C 1,2 km/h (1 Bft)
12.04.2015 23:00 10,5 C 21,5 C 8,8 C 10,2 C 9,7 C 0,0 C 73 % 79 % 0 % 1025,3 hPa 0,0 l/m 4,0 km/h (1 Bft) S 0,00 h 4,0 UV-I 5,8 C 9,6 C 5,5 km/h (1 Bft)
Min-Datum _ 07.04.15 07.04.15 07.04.15 07.04.15 07.04.15 06.04.15 12.04.15 12.04.15 06.04.15 11.04.15 - 06.04.15 - - 06.04.15 07.04.15 07.04.15 06.04.15
_ Min-Zeit 05:15 09:15 06:15 05:15 05:15 00:00 12:15 13:00 00:00 05:55 - 00:00 - - 09:05 05:15 05:15 00:00
Minimum _ -4,3 C 15,9 C -3,5 C -4,5 C -4,9 C 0,0 C 37 % 34 % 0 % 1018,9 hPa - 0,0 km/h (0 Bft) - - 0,0 UV-I -6,4 C -4,9 C 0,0 km/h (0 Bft)
Max-Datum _ 10.04.15 11.04.15 10.04.15 10.04.15 10.04.15 10.04.15 10.04.15 10.04.15 06.04.15 07.04.15 06.04.15 11.04.15 - 07.04.15 11.04.15 10.04.15 10.04.15 11.04.15
_ Max-Zeit 16:10 18:50 13:45 15:30 15:30 08:40 08:55 05:50 07:30 10:15 00:00 15:35 - 09:50 09:00 12:20 15:30 15:55
Maximum _ 21,6 C 22,1 C 24,7 C 27,1 C 27,1 C 11,3 C 92 % 90 % 100 % 1036,6 hPa 0,0 l/m 14,0 km/h
SW (3 Bft)
- 0,13 h 21,8 UV-I 9,7 C 27,1 C 32,3 km/h
SW (5 Bft)
Durchschnitt _ 8,3 C 19,2 C 9,1 C 10,1 C 9,9 C 1,9 C 70 % 72 % 37 % 1027,8 hPa #0,0 l/m 2,4 km/h (1 Bft) W-SW #52:09 h 2,4 UV-I 2,8 C 9,9 C 3,3 km/h (1 Bft)
2015 www.wetterstation-wechselburg.de